sensor_id;sensor_type;location;lat;lon;timestamp;P1;durP1;ratioP1;P2;durP2;ratioP2
38725;SDS011;24474;48.906;8.808;2023-04-03T00:00:52;4.25;;;2.70;;
38725;SDS011;24474;48.906;8.808;2023-04-03T00:03:18;4.03;;;1.73;;
38725;SDS011;24474;48.906;8.808;2023-04-03T00:05:46;3.08;;;1.90;;
38725;SDS011;24474;48.906;8.808;2023-04-03T00:08:12;3.38;;;1.80;;
38725;SDS011;24474;48.906;8.808;2023-04-03T00:10:40;3.47;;;1.88;;
38725;SDS011;24474;48.906;8.808;2023-04-03T00:13:07;4.00;;;1.95;;
38725;SDS011;24474;48.906;8.808;2023-04-03T00:15:35;3.33;;;1.90;;
38725;SDS011;24474;48.906;8.808;2023-04-03T00:18:02;2.53;;;1.77;;
38725;SDS011;24474;48.906;8.808;2023-04-03T00:20:31;2.80;;;1.90;;
38725;SDS011;24474;48.906;8.808;2023-04-03T00:22:58;3.47;;;1.73;;
38725;SDS011;24474;48.906;8.808;2023-04-03T00:25:28;3.00;;;1.90;;
38725;SDS011;24474;48.906;8.808;2023-04-03T00:27:55;4.32;;;2.25;;
38725;SDS011;24474;48.906;8.808;2023-04-03T00:30:21;4.28;;;1.80;;
38725;SDS011;24474;48.906;8.808;2023-04-03T00:32:49;3.00;;;1.88;;
38725;SDS011;24474;48.906;8.808;2023-04-03T00:35:18;4.43;;;2.45;;
38725;SDS011;24474;48.906;8.808;2023-04-03T00:37:50;3.15;;;2.17;;
38725;SDS011;24474;48.906;8.808;2023-04-03T00:40:18;3.88;;;2.10;;
38725;SDS011;24474;48.906;8.808;2023-04-03T00:42:46;4.25;;;2.20;;
38725;SDS011;24474;48.906;8.808;2023-04-03T00:45:24;4.70;;;2.05;;
38725;SDS011;24474;48.906;8.808;2023-04-03T00:47:57;3.63;;;2.00;;
38725;SDS011;24474;48.906;8.808;2023-04-03T00:50:25;3.28;;;1.90;;
38725;SDS011;24474;48.906;8.808;2023-04-03T00:52:55;4.03;;;2.05;;
38725;SDS011;24474;48.906;8.808;2023-04-03T00:55:25;3.13;;;2.20;;
38725;SDS011;24474;48.906;8.808;2023-04-03T00:58:01;3.85;;;1.95;;
38725;SDS011;24474;48.906;8.808;2023-04-03T01:00:30;4.40;;;2.00;;
38725;SDS011;24474;48.906;8.808;2023-04-03T01:02:57;3.17;;;2.17;;
38725;SDS011;24474;48.906;8.808;2023-04-03T01:05:24;6.80;;;2.42;;
38725;SDS011;24474;48.906;8.808;2023-04-03T01:07:50;3.20;;;2.03;;
38725;SDS011;24474;48.906;8.808;2023-04-03T01:10:17;2.47;;;1.90;;
38725;SDS011;24474;48.906;8.808;2023-04-03T01:12:48;3.65;;;1.98;;
38725;SDS011;24474;48.906;8.808;2023-04-03T01:15:18;5.50;;;2.20;;
38725;SDS011;24474;48.906;8.808;2023-04-03T01:17:54;3.88;;;1.90;;
38725;SDS011;24474;48.906;8.808;2023-04-03T01:20:46;3.00;;;1.77;;
38725;SDS011;24474;48.906;8.808;2023-04-03T01:26:32;3.08;;;2.00;;
38725;SDS011;24474;48.906;8.808;2023-04-03T01:29:03;3.60;;;1.98;;
38725;SDS011;24474;48.906;8.808;2023-04-03T01:34:17;3.83;;;2.10;;
38725;SDS011;24474;48.906;8.808;2023-04-03T01:36:43;3.40;;;2.00;;
38725;SDS011;24474;48.906;8.808;2023-04-03T01:39:11;2.42;;;1.80;;
38725;SDS011;24474;48.906;8.808;2023-04-03T01:41:37;3.03;;;1.88;;
38725;SDS011;24474;48.906;8.808;2023-04-03T01:44:03;5.32;;;2.00;;
38725;SDS011;24474;48.906;8.808;2023-04-03T01:46:30;3.63;;;2.00;;
38725;SDS011;24474;48.906;8.808;2023-04-03T01:48:56;3.58;;;1.88;;
38725;SDS011;24474;48.906;8.808;2023-04-03T01:51:22;4.95;;;2.30;;
38725;SDS011;24474;48.906;8.808;2023-04-03T01:53:51;4.78;;;2.00;;
38725;SDS011;24474;48.906;8.808;2023-04-03T01:56:16;5.13;;;1.90;;
38725;SDS011;24474;48.906;8.808;2023-04-03T01:58:42;3.67;;;1.90;;
38725;SDS011;24474;48.906;8.808;2023-04-03T02:01:09;3.88;;;2.13;;
38725;SDS011;24474;48.906;8.808;2023-04-03T02:03:36;3.40;;;2.13;;
38725;SDS011;24474;48.906;8.808;2023-04-03T02:06:02;3.15;;;2.10;;
38725;SDS011;24474;48.906;8.808;2023-04-03T02:08:28;5.22;;;2.00;;
38725;SDS011;24474;48.906;8.808;2023-04-03T02:10:53;3.60;;;2.10;;
38725;SDS011;24474;48.906;8.808;2023-04-03T02:13:20;4.68;;;2.13;;
38725;SDS011;24474;48.906;8.808;2023-04-03T02:15:48;3.97;;;1.90;;
38725;SDS011;24474;48.906;8.808;2023-04-03T02:18:15;2.58;;;1.95;;
38725;SDS011;24474;48.906;8.808;2023-04-03T02:20:42;3.60;;;1.98;;
38725;SDS011;24474;48.906;8.808;2023-04-03T02:23:09;3.15;;;1.95;;
38725;SDS011;24474;48.906;8.808;2023-04-03T02:25:38;3.92;;;2.20;;
38725;SDS011;24474;48.906;8.808;2023-04-03T02:28:04;5.78;;;2.22;;
38725;SDS011;24474;48.906;8.808;2023-04-03T02:30:32;3.90;;;2.10;;
38725;SDS011;24474;48.906;8.808;2023-04-03T02:32:58;5.18;;;2.40;;
38725;SDS011;24474;48.906;8.808;2023-04-03T02:35:24;3.50;;;2.00;;
38725;SDS011;24474;48.906;8.808;2023-04-03T02:37:51;4.10;;;2.50;;
38725;SDS011;24474;48.906;8.808;2023-04-03T02:40:18;3.85;;;2.05;;
38725;SDS011;24474;48.906;8.808;2023-04-03T02:42:44;2.75;;;2.00;;
38725;SDS011;24474;48.906;8.808;2023-04-03T02:45:11;3.75;;;2.28;;
38725;SDS011;24474;48.906;8.808;2023-04-03T02:47:38;2.85;;;1.75;;
38725;SDS011;24474;48.906;8.808;2023-04-03T02:50:05;3.83;;;2.20;;
38725;SDS011;24474;48.906;8.808;2023-04-03T02:52:32;4.43;;;2.50;;
38725;SDS011;24474;48.906;8.808;2023-04-03T02:54:59;6.47;;;2.50;;
38725;SDS011;24474;48.906;8.808;2023-04-03T02:57:25;3.20;;;2.30;;
38725;SDS011;24474;48.906;8.808;2023-04-03T02:59:51;4.47;;;2.20;;
38725;SDS011;24474;48.906;8.808;2023-04-03T03:02:17;3.17;;;2.40;;
38725;SDS011;24474;48.906;8.808;2023-04-03T03:04:44;3.85;;;2.42;;
38725;SDS011;24474;48.906;8.808;2023-04-03T03:07:10;3.58;;;2.35;;
38725;SDS011;24474;48.906;8.808;2023-04-03T03:09:36;3.65;;;2.25;;
38725;SDS011;24474;48.906;8.808;2023-04-03T03:12:03;3.97;;;2.53;;
38725;SDS011;24474;48.906;8.808;2023-04-03T03:14:30;3.95;;;2.22;;
38725;SDS011;24474;48.906;8.808;2023-04-03T03:16:57;3.92;;;2.25;;
38725;SDS011;24474;48.906;8.808;2023-04-03T03:19:24;4.22;;;2.30;;
38725;SDS011;24474;48.906;8.808;2023-04-03T03:21:51;3.28;;;2.00;;
38725;SDS011;24474;48.906;8.808;2023-04-03T03:24:17;4.13;;;2.30;;
38725;SDS011;24474;48.906;8.808;2023-04-03T03:26:45;6.68;;;2.38;;
38725;SDS011;24474;48.906;8.808;2023-04-03T03:29:12;4.72;;;2.10;;
38725;SDS011;24474;48.906;8.808;2023-04-03T03:31:38;3.13;;;2.33;;
38725;SDS011;24474;48.906;8.808;2023-04-03T03:34:05;3.78;;;2.20;;
38725;SDS011;24474;48.906;8.808;2023-04-03T03:36:30;3.10;;;2.03;;
38725;SDS011;24474;48.906;8.808;2023-04-03T03:38:57;2.72;;;2.00;;
38725;SDS011;24474;48.906;8.808;2023-04-03T03:41:24;3.05;;;2.20;;
38725;SDS011;24474;48.906;8.808;2023-04-03T03:43:51;4.78;;;2.30;;
38725;SDS011;24474;48.906;8.808;2023-04-03T03:46:17;4.07;;;2.17;;
38725;SDS011;24474;48.906;8.808;2023-04-03T03:48:44;4.47;;;2.55;;
38725;SDS011;24474;48.906;8.808;2023-04-03T03:51:11;5.25;;;2.58;;
38725;SDS011;24474;48.906;8.808;2023-04-03T03:53:37;4.28;;;2.20;;
38725;SDS011;24474;48.906;8.808;2023-04-03T03:56:04;2.60;;;2.10;;
38725;SDS011;24474;48.906;8.808;2023-04-03T03:58:31;4.28;;;1.88;;
38725;SDS011;24474;48.906;8.808;2023-04-03T04:01:00;4.10;;;2.20;;
38725;SDS011;24474;48.906;8.808;2023-04-03T04:03:32;3.15;;;2.10;;
38725;SDS011;24474;48.906;8.808;2023-04-03T04:05:58;3.70;;;2.22;;
38725;SDS011;24474;48.906;8.808;2023-04-03T04:08:25;3.92;;;2.40;;
38725;SDS011;24474;48.906;8.808;2023-04-03T04:10:52;3.30;;;2.17;;
38725;SDS011;24474;48.906;8.808;2023-04-03T04:13:19;3.33;;;2.30;;
38725;SDS011;24474;48.906;8.808;2023-04-03T04:15:46;6.30;;;2.40;;
38725;SDS011;24474;48.906;8.808;2023-04-03T04:18:13;3.97;;;2.22;;
38725;SDS011;24474;48.906;8.808;2023-04-03T04:20:40;3.55;;;2.40;;
38725;SDS011;24474;48.906;8.808;2023-04-03T04:23:05;5.35;;;2.30;;
38725;SDS011;24474;48.906;8.808;2023-04-03T04:25:32;3.60;;;2.15;;
38725;SDS011;24474;48.906;8.808;2023-04-03T04:28:01;5.00;;;2.28;;
38725;SDS011;24474;48.906;8.808;2023-04-03T04:30:26;3.58;;;2.00;;
38725;SDS011;24474;48.906;8.808;2023-04-03T04:32:53;2.88;;;1.88;;
38725;SDS011;24474;48.906;8.808;2023-04-03T04:35:20;4.30;;;2.30;;
38725;SDS011;24474;48.906;8.808;2023-04-03T04:37:47;3.70;;;2.20;;
38725;SDS011;24474;48.906;8.808;2023-04-03T04:40:14;3.42;;;2.17;;
38725;SDS011;24474;48.906;8.808;2023-04-03T04:42:41;3.83;;;2.30;;
38725;SDS011;24474;48.906;8.808;2023-04-03T04:45:08;3.92;;;2.20;;
38725;SDS011;24474;48.906;8.808;2023-04-03T04:47:37;3.28;;;2.15;;
38725;SDS011;24474;48.906;8.808;2023-04-03T04:50:03;4.25;;;2.28;;
38725;SDS011;24474;48.906;8.808;2023-04-03T04:52:29;3.67;;;2.35;;
38725;SDS011;24474;48.906;8.808;2023-04-03T04:54:56;3.90;;;1.92;;
38725;SDS011;24474;48.906;8.808;2023-04-03T04:57:22;5.10;;;2.08;;
38725;SDS011;24474;48.906;8.808;2023-04-03T04:59:50;2.53;;;1.88;;
38725;SDS011;24474;48.906;8.808;2023-04-03T05:02:15;3.10;;;2.25;;
38725;SDS011;24474;48.906;8.808;2023-04-03T05:04:42;4.75;;;2.30;;
38725;SDS011;24474;48.906;8.808;2023-04-03T05:07:08;3.00;;;2.10;;
38725;SDS011;24474;48.906;8.808;2023-04-03T05:09:36;3.92;;;2.00;;
38725;SDS011;24474;48.906;8.808;2023-04-03T05:12:03;2.70;;;2.10;;
38725;SDS011;24474;48.906;8.808;2023-04-03T05:14:30;5.28;;;2.10;;
38725;SDS011;24474;48.906;8.808;2023-04-03T05:16:56;3.55;;;2.33;;
38725;SDS011;24474;48.906;8.808;2023-04-03T05:19:22;3.72;;;2.25;;
38725;SDS011;24474;48.906;8.808;2023-04-03T05:21:49;5.07;;;2.80;;
38725;SDS011;24474;48.906;8.808;2023-04-03T05:24:15;5.13;;;2.50;;
38725;SDS011;24474;48.906;8.808;2023-04-03T05:26:41;3.70;;;2.30;;
38725;SDS011;24474;48.906;8.808;2023-04-03T05:29:10;4.82;;;2.42;;
38725;SDS011;24474;48.906;8.808;2023-04-03T05:31:36;2.80;;;2.22;;
38725;SDS011;24474;48.906;8.808;2023-04-03T05:34:03;3.17;;;2.13;;
38725;SDS011;24474;48.906;8.808;2023-04-03T05:36:30;3.17;;;2.13;;
38725;SDS011;24474;48.906;8.808;2023-04-03T05:38:55;4.45;;;2.00;;
38725;SDS011;24474;48.906;8.808;2023-04-03T05:41:24;3.97;;;2.38;;
38725;SDS011;24474;48.906;8.808;2023-04-03T05:43:51;4.40;;;2.08;;
38725;SDS011;24474;48.906;8.808;2023-04-03T05:46:18;3.78;;;2.15;;
38725;SDS011;24474;48.906;8.808;2023-04-03T05:48:45;3.80;;;2.13;;
38725;SDS011;24474;48.906;8.808;2023-04-03T05:51:17;4.45;;;2.33;;
38725;SDS011;24474;48.906;8.808;2023-04-03T05:54:19;5.18;;;2.50;;
38725;SDS011;24474;48.906;8.808;2023-04-03T05:56:49;2.55;;;2.00;;
38725;SDS011;24474;48.906;8.808;2023-04-03T05:59:17;4.80;;;2.50;;
38725;SDS011;24474;48.906;8.808;2023-04-03T06:01:43;4.07;;;2.40;;
38725;SDS011;24474;48.906;8.808;2023-04-03T06:04:10;4.05;;;2.20;;
38725;SDS011;24474;48.906;8.808;2023-04-03T06:06:44;3.30;;;2.13;;
38725;SDS011;24474;48.906;8.808;2023-04-03T06:09:22;5.28;;;2.25;;
38725;SDS011;24474;48.906;8.808;2023-04-03T06:11:51;4.35;;;2.42;;
38725;SDS011;24474;48.906;8.808;2023-04-03T06:14:18;3.28;;;2.03;;
38725;SDS011;24474;48.906;8.808;2023-04-03T06:16:45;3.20;;;2.10;;
38725;SDS011;24474;48.906;8.808;2023-04-03T06:19:11;2.83;;;2.00;;
38725;SDS011;24474;48.906;8.808;2023-04-03T06:21:39;4.57;;;2.30;;
38725;SDS011;24474;48.906;8.808;2023-04-03T06:24:06;2.85;;;1.90;;
38725;SDS011;24474;48.906;8.808;2023-04-03T06:26:32;5.57;;;2.28;;
38725;SDS011;24474;48.906;8.808;2023-04-03T06:29:00;3.45;;;2.08;;
38725;SDS011;24474;48.906;8.808;2023-04-03T06:31:28;3.30;;;2.10;;
38725;SDS011;24474;48.906;8.808;2023-04-03T06:33:55;3.80;;;2.40;;
38725;SDS011;24474;48.906;8.808;2023-04-03T06:36:23;4.25;;;2.20;;
38725;SDS011;24474;48.906;8.808;2023-04-03T06:38:50;3.22;;;2.00;;
38725;SDS011;24474;48.906;8.808;2023-04-03T06:41:17;6.80;;;2.67;;
38725;SDS011;24474;48.906;8.808;2023-04-03T06:43:44;5.75;;;2.72;;
38725;SDS011;24474;48.906;8.808;2023-04-03T06:46:14;7.25;;;3.15;;
38725;SDS011;24474;48.906;8.808;2023-04-03T06:48:41;7.78;;;3.33;;
38725;SDS011;24474;48.906;8.808;2023-04-03T06:51:19;9.02;;;3.50;;
38725;SDS011;24474;48.906;8.808;2023-04-03T06:53:50;7.32;;;3.53;;
38725;SDS011;24474;48.906;8.808;2023-04-03T06:56:18;6.80;;;3.60;;
38725;SDS011;24474;48.906;8.808;2023-04-03T06:58:44;7.43;;;3.20;;
38725;SDS011;24474;48.906;8.808;2023-04-03T07:01:13;4.72;;;2.75;;
38725;SDS011;24474;48.906;8.808;2023-04-03T07:03:41;6.35;;;3.17;;
38725;SDS011;24474;48.906;8.808;2023-04-03T07:06:12;5.35;;;2.63;;
38725;SDS011;24474;48.906;8.808;2023-04-03T07:08:40;5.22;;;3.03;;
38725;SDS011;24474;48.906;8.808;2023-04-03T07:11:09;5.22;;;2.67;;
38725;SDS011;24474;48.906;8.808;2023-04-03T07:13:37;5.72;;;2.50;;
38725;SDS011;24474;48.906;8.808;2023-04-03T07:16:03;5.22;;;2.83;;
38725;SDS011;24474;48.906;8.808;2023-04-03T07:18:31;5.57;;;2.70;;
38725;SDS011;24474;48.906;8.808;2023-04-03T07:20:59;6.57;;;2.60;;
38725;SDS011;24474;48.906;8.808;2023-04-03T07:23:25;6.10;;;2.92;;
38725;SDS011;24474;48.906;8.808;2023-04-03T07:25:52;6.85;;;2.88;;
38725;SDS011;24474;48.906;8.808;2023-04-03T07:28:18;6.43;;;2.95;;
38725;SDS011;24474;48.906;8.808;2023-04-03T07:30:50;5.30;;;2.88;;
38725;SDS011;24474;48.906;8.808;2023-04-03T07:33:32;7.88;;;2.72;;
38725;SDS011;24474;48.906;8.808;2023-04-03T07:36:00;5.38;;;2.50;;
38725;SDS011;24474;48.906;8.808;2023-04-03T07:38:27;5.22;;;2.70;;
38725;SDS011;24474;48.906;8.808;2023-04-03T07:40:55;5.53;;;2.95;;
38725;SDS011;24474;48.906;8.808;2023-04-03T07:43:21;4.28;;;2.60;;
38725;SDS011;24474;48.906;8.808;2023-04-03T07:45:48;7.55;;;2.97;;
38725;SDS011;24474;48.906;8.808;2023-04-03T07:48:21;6.28;;;2.80;;
38725;SDS011;24474;48.906;8.808;2023-04-03T07:50:48;4.60;;;2.63;;
38725;SDS011;24474;48.906;8.808;2023-04-03T07:53:15;5.07;;;2.80;;
38725;SDS011;24474;48.906;8.808;2023-04-03T07:55:42;4.80;;;2.70;;
38725;SDS011;24474;48.906;8.808;2023-04-03T07:58:10;6.40;;;2.90;;
38725;SDS011;24474;48.906;8.808;2023-04-03T08:00:37;6.00;;;2.70;;
38725;SDS011;24474;48.906;8.808;2023-04-03T08:03:04;4.97;;;3.00;;
38725;SDS011;24474;48.906;8.808;2023-04-03T08:05:42;5.57;;;2.42;;
38725;SDS011;24474;48.906;8.808;2023-04-03T08:08:15;5.97;;;2.65;;
38725;SDS011;24474;48.906;8.808;2023-04-03T08:10:42;4.18;;;2.70;;
38725;SDS011;24474;48.906;8.808;2023-04-03T08:13:09;4.10;;;2.72;;
38725;SDS011;24474;48.906;8.808;2023-04-03T08:15:36;7.13;;;2.70;;
38725;SDS011;24474;48.906;8.808;2023-04-03T08:18:03;5.93;;;3.10;;
38725;SDS011;24474;48.906;8.808;2023-04-03T08:20:30;4.95;;;2.75;;
38725;SDS011;24474;48.906;8.808;2023-04-03T08:22:57;8.48;;;3.10;;
38725;SDS011;24474;48.906;8.808;2023-04-03T08:25:24;6.20;;;3.00;;
38725;SDS011;24474;48.906;8.808;2023-04-03T08:27:50;7.50;;;3.78;;
38725;SDS011;24474;48.906;8.808;2023-04-03T08:30:17;6.85;;;3.88;;
38725;SDS011;24474;48.906;8.808;2023-04-03T08:32:43;7.57;;;3.70;;
38725;SDS011;24474;48.906;8.808;2023-04-03T08:35:10;7.55;;;3.35;;
38725;SDS011;24474;48.906;8.808;2023-04-03T08:37:37;6.93;;;3.20;;
38725;SDS011;24474;48.906;8.808;2023-04-03T08:40:04;7.55;;;3.10;;
38725;SDS011;24474;48.906;8.808;2023-04-03T08:45:17;5.80;;;2.92;;
38725;SDS011;24474;48.906;8.808;2023-04-03T08:48:46;7.53;;;3.33;;
38725;SDS011;24474;48.906;8.808;2023-04-03T08:51:18;6.57;;;3.10;;
38725;SDS011;24474;48.906;8.808;2023-04-03T08:54:02;4.07;;;2.95;;
38725;SDS011;24474;48.906;8.808;2023-04-03T08:56:33;5.15;;;2.70;;
38725;SDS011;24474;48.906;8.808;2023-04-03T08:59:05;4.53;;;2.60;;
38725;SDS011;24474;48.906;8.808;2023-04-03T09:01:43;6.40;;;2.40;;
38725;SDS011;24474;48.906;8.808;2023-04-03T09:04:16;4.50;;;2.60;;
38725;SDS011;24474;48.906;8.808;2023-04-03T09:07:02;4.88;;;2.50;;
38725;SDS011;24474;48.906;8.808;2023-04-03T09:09:40;7.15;;;2.85;;
38725;SDS011;24474;48.906;8.808;2023-04-03T09:26:28;3.72;;;1.98;;
38725;SDS011;24474;48.906;8.808;2023-04-03T09:29:01;5.55;;;2.05;;
38725;SDS011;24474;48.906;8.808;2023-04-03T09:31:42;4.47;;;1.90;;
38725;SDS011;24474;48.906;8.808;2023-04-03T09:34:15;7.20;;;2.30;;
38725;SDS011;24474;48.906;8.808;2023-04-03T09:36:57;4.80;;;2.10;;
38725;SDS011;24474;48.906;8.808;2023-04-03T09:39:47;5.93;;;2.13;;
38725;SDS011;24474;48.906;8.808;2023-04-03T09:42:19;5.45;;;2.17;;
38725;SDS011;24474;48.906;8.808;2023-04-03T09:45:02;4.97;;;2.13;;
38725;SDS011;24474;48.906;8.808;2023-04-03T09:47:33;4.40;;;2.40;;
38725;SDS011;24474;48.906;8.808;2023-04-03T09:50:21;4.55;;;2.10;;
38725;SDS011;24474;48.906;8.808;2023-04-03T09:52:49;5.55;;;2.45;;
38725;SDS011;24474;48.906;8.808;2023-04-03T09:55:26;7.45;;;2.70;;
38725;SDS011;24474;48.906;8.808;2023-04-03T09:57:55;4.00;;;2.20;;
38725;SDS011;24474;48.906;8.808;2023-04-03T10:03:03;4.90;;;2.38;;
38725;SDS011;24474;48.906;8.808;2023-04-03T10:08:31;5.47;;;2.20;;
38725;SDS011;24474;48.906;8.808;2023-04-03T10:11:32;4.45;;;2.47;;
38725;SDS011;24474;48.906;8.808;2023-04-03T10:14:02;5.53;;;2.75;;
38725;SDS011;24474;48.906;8.808;2023-04-03T10:16:40;6.47;;;2.40;;
38725;SDS011;24474;48.906;8.808;2023-04-03T10:22:33;4.47;;;2.17;;
38725;SDS011;24474;48.906;8.808;2023-04-03T10:28:00;6.05;;;2.10;;
38725;SDS011;24474;48.906;8.808;2023-04-03T10:48:04;4.75;;;1.70;;
38725;SDS011;24474;48.906;8.808;2023-04-03T10:54:31;4.93;;;1.95;;
38725;SDS011;24474;48.906;8.808;2023-04-03T10:57:06;4.63;;;1.80;;
38725;SDS011;24474;48.906;8.808;2023-04-03T10:59:47;5.97;;;2.60;;
38725;SDS011;24474;48.906;8.808;2023-04-03T11:11:00;4.57;;;1.70;;
38725;SDS011;24474;48.906;8.808;2023-04-03T11:13:34;4.70;;;1.70;;
38725;SDS011;24474;48.906;8.808;2023-04-03T11:16:05;3.95;;;1.83;;
38725;SDS011;24474;48.906;8.808;2023-04-03T11:18:42;5.05;;;2.03;;
38725;SDS011;24474;48.906;8.808;2023-04-03T11:21:46;7.00;;;1.50;;
38725;SDS011;24474;48.906;8.808;2023-04-03T11:24:31;2.80;;;1.60;;
38725;SDS011;24474;48.906;8.808;2023-04-03T11:27:00;3.95;;;1.70;;
38725;SDS011;24474;48.906;8.808;2023-04-03T11:29:34;3.45;;;1.63;;
38725;SDS011;24474;48.906;8.808;2023-04-03T11:35:09;4.15;;;1.67;;
38725;SDS011;24474;48.906;8.808;2023-04-03T11:37:54;4.25;;;1.60;;
38725;SDS011;24474;48.906;8.808;2023-04-03T11:40:28;4.78;;;1.50;;
38725;SDS011;24474;48.906;8.808;2023-04-03T11:43:06;7.15;;;1.75;;
38725;SDS011;24474;48.906;8.808;2023-04-03T11:45:54;3.63;;;1.67;;
38725;SDS011;24474;48.906;8.808;2023-04-03T12:03:31;4.35;;;1.77;;
38725;SDS011;24474;48.906;8.808;2023-04-03T12:24:31;3.05;;;1.60;;
38725;SDS011;24474;48.906;8.808;2023-04-03T12:27:09;4.03;;;1.77;;
38725;SDS011;24474;48.906;8.808;2023-04-03T12:29:50;3.38;;;1.83;;
38725;SDS011;24474;48.906;8.808;2023-04-03T12:32:47;3.58;;;1.75;;
38725;SDS011;24474;48.906;8.808;2023-04-03T12:35:34;4.60;;;2.08;;
38725;SDS011;24474;48.906;8.808;2023-04-03T12:38:41;3.90;;;1.88;;
38725;SDS011;24474;48.906;8.808;2023-04-03T12:41:58;5.50;;;1.60;;
38725;SDS011;24474;48.906;8.808;2023-04-03T12:44:54;3.97;;;1.58;;
38725;SDS011;24474;48.906;8.808;2023-04-03T12:47:33;5.97;;;2.00;;
38725;SDS011;24474;48.906;8.808;2023-04-03T12:50:04;4.28;;;1.75;;
38725;SDS011;24474;48.906;8.808;2023-04-03T12:52:54;4.13;;;1.55;;
38725;SDS011;24474;48.906;8.808;2023-04-03T12:55:22;2.45;;;1.30;;
38725;SDS011;24474;48.906;8.808;2023-04-03T12:57:49;3.17;;;1.55;;
38725;SDS011;24474;48.906;8.808;2023-04-03T13:00:18;7.28;;;2.38;;
38725;SDS011;24474;48.906;8.808;2023-04-03T13:03:06;3.60;;;1.80;;
38725;SDS011;24474;48.906;8.808;2023-04-03T13:05:48;4.25;;;1.50;;
38725;SDS011;24474;48.906;8.808;2023-04-03T13:08:15;5.10;;;2.00;;
38725;SDS011;24474;48.906;8.808;2023-04-03T13:10:47;5.68;;;1.90;;
38725;SDS011;24474;48.906;8.808;2023-04-03T13:13:29;4.07;;;1.50;;
38725;SDS011;24474;48.906;8.808;2023-04-03T13:15:56;3.97;;;2.15;;
38725;SDS011;24474;48.906;8.808;2023-04-03T13:18:33;3.92;;;1.70;;
38725;SDS011;24474;48.906;8.808;2023-04-03T13:21:03;5.20;;;1.98;;
38725;SDS011;24474;48.906;8.808;2023-04-03T13:23:35;5.55;;;2.15;;
38725;SDS011;24474;48.906;8.808;2023-04-03T13:26:07;5.07;;;1.83;;
38725;SDS011;24474;48.906;8.808;2023-04-03T13:28:35;7.88;;;2.10;;
38725;SDS011;24474;48.906;8.808;2023-04-03T13:31:14;4.15;;;2.03;;
38725;SDS011;24474;48.906;8.808;2023-04-03T13:34:11;4.20;;;2.00;;
38725;SDS011;24474;48.906;8.808;2023-04-03T13:36:44;6.97;;;3.13;;
38725;SDS011;24474;48.906;8.808;2023-04-03T13:39:27;3.83;;;1.60;;
38725;SDS011;24474;48.906;8.808;2023-04-03T13:41:57;3.20;;;1.80;;
38725;SDS011;24474;48.906;8.808;2023-04-03T13:44:31;5.35;;;2.38;;
38725;SDS011;24474;48.906;8.808;2023-04-03T13:47:16;5.82;;;2.60;;
38725;SDS011;24474;48.906;8.808;2023-04-03T13:52:47;3.83;;;2.03;;
38725;SDS011;24474;48.906;8.808;2023-04-03T13:55:31;3.38;;;1.70;;
38725;SDS011;24474;48.906;8.808;2023-04-03T14:03:43;5.28;;;1.60;;
38725;SDS011;24474;48.906;8.808;2023-04-03T14:06:39;5.85;;;2.20;;
38725;SDS011;24474;48.906;8.808;2023-04-03T14:09:12;3.75;;;1.80;;
38725;SDS011;24474;48.906;8.808;2023-04-03T14:11:40;4.80;;;2.03;;
38725;SDS011;24474;48.906;8.808;2023-04-03T14:14:22;4.40;;;1.67;;
38725;SDS011;24474;48.906;8.808;2023-04-03T14:16:58;4.72;;;1.65;;
38725;SDS011;24474;48.906;8.808;2023-04-03T14:19:28;4.10;;;1.80;;
38725;SDS011;24474;48.906;8.808;2023-04-03T14:21:58;3.05;;;1.80;;
38725;SDS011;24474;48.906;8.808;2023-04-03T14:24:28;10.50;;;5.38;;
38725;SDS011;24474;48.906;8.808;2023-04-03T14:26:55;10.10;;;4.65;;
38725;SDS011;24474;48.906;8.808;2023-04-03T14:31:56;3.58;;;2.00;;
38725;SDS011;24474;48.906;8.808;2023-04-03T14:34:28;3.03;;;1.77;;
38725;SDS011;24474;48.906;8.808;2023-04-03T14:36:55;4.63;;;1.80;;
38725;SDS011;24474;48.906;8.808;2023-04-03T14:39:22;2.63;;;1.70;;
38725;SDS011;24474;48.906;8.808;2023-04-03T14:41:50;3.80;;;1.70;;
38725;SDS011;24474;48.906;8.808;2023-04-03T14:44:18;2.67;;;1.52;;
38725;SDS011;24474;48.906;8.808;2023-04-03T14:46:45;4.60;;;1.80;;
38725;SDS011;24474;48.906;8.808;2023-04-03T14:49:18;3.78;;;1.90;;
38725;SDS011;24474;48.906;8.808;2023-04-03T14:51:47;3.90;;;2.13;;
38725;SDS011;24474;48.906;8.808;2023-04-03T14:54:14;4.35;;;2.20;;
38725;SDS011;24474;48.906;8.808;2023-04-03T14:56:51;2.50;;;1.35;;
38725;SDS011;24474;48.906;8.808;2023-04-03T14:59:19;5.97;;;2.00;;
38725;SDS011;24474;48.906;8.808;2023-04-03T15:01:48;5.38;;;2.20;;
38725;SDS011;24474;48.906;8.808;2023-04-03T15:04:16;4.32;;;1.73;;
38725;SDS011;24474;48.906;8.808;2023-04-03T15:06:44;4.30;;;2.00;;
38725;SDS011;24474;48.906;8.808;2023-04-03T15:09:25;3.50;;;1.48;;
38725;SDS011;24474;48.906;8.808;2023-04-03T15:11:54;3.10;;;1.60;;
38725;SDS011;24474;48.906;8.808;2023-04-03T15:14:22;3.92;;;1.80;;
38725;SDS011;24474;48.906;8.808;2023-04-03T15:16:49;5.03;;;1.75;;
38725;SDS011;24474;48.906;8.808;2023-04-03T15:19:16;4.90;;;1.83;;
38725;SDS011;24474;48.906;8.808;2023-04-03T15:21:42;3.38;;;1.80;;
38725;SDS011;24474;48.906;8.808;2023-04-03T15:24:10;3.67;;;1.58;;
38725;SDS011;24474;48.906;8.808;2023-04-03T15:26:37;3.58;;;1.65;;
38725;SDS011;24474;48.906;8.808;2023-04-03T15:29:04;3.70;;;1.65;;
38725;SDS011;24474;48.906;8.808;2023-04-03T15:31:32;4.43;;;1.90;;
38725;SDS011;24474;48.906;8.808;2023-04-03T15:33:59;4.47;;;1.88;;
38725;SDS011;24474;48.906;8.808;2023-04-03T15:36:26;3.25;;;1.80;;
38725;SDS011;24474;48.906;8.808;2023-04-03T15:38:54;3.25;;;2.10;;
38725;SDS011;24474;48.906;8.808;2023-04-03T15:41:20;3.25;;;2.00;;
38725;SDS011;24474;48.906;8.808;2023-04-03T15:43:47;4.45;;;1.77;;
38725;SDS011;24474;48.906;8.808;2023-04-03T15:46:13;6.85;;;2.20;;
38725;SDS011;24474;48.906;8.808;2023-04-03T15:48:40;3.85;;;2.00;;
38725;SDS011;24474;48.906;8.808;2023-04-03T15:51:07;5.32;;;2.10;;
38725;SDS011;24474;48.906;8.808;2023-04-03T15:53:35;4.43;;;2.00;;
38725;SDS011;24474;48.906;8.808;2023-04-03T15:56:03;3.35;;;1.83;;
38725;SDS011;24474;48.906;8.808;2023-04-03T15:58:30;2.92;;;1.90;;
38725;SDS011;24474;48.906;8.808;2023-04-03T16:00:57;4.03;;;1.83;;
38725;SDS011;24474;48.906;8.808;2023-04-03T16:03:24;7.55;;;4.80;;
38725;SDS011;24474;48.906;8.808;2023-04-03T16:05:55;5.20;;;2.45;;
38725;SDS011;24474;48.906;8.808;2023-04-03T16:08:21;6.50;;;2.00;;
38725;SDS011;24474;48.906;8.808;2023-04-03T16:10:51;2.70;;;1.85;;
38725;SDS011;24474;48.906;8.808;2023-04-03T16:13:19;5.45;;;2.00;;
38725;SDS011;24474;48.906;8.808;2023-04-03T16:15:47;4.20;;;1.75;;
38725;SDS011;24474;48.906;8.808;2023-04-03T16:18:18;6.55;;;2.72;;
38725;SDS011;24474;48.906;8.808;2023-04-03T16:20:44;6.32;;;3.38;;
38725;SDS011;24474;48.906;8.808;2023-04-03T16:23:11;4.28;;;2.10;;
38725;SDS011;24474;48.906;8.808;2023-04-03T16:25:39;4.00;;;1.83;;
38725;SDS011;24474;48.906;8.808;2023-04-03T16:28:12;4.20;;;1.90;;
38725;SDS011;24474;48.906;8.808;2023-04-03T16:30:39;4.07;;;2.08;;
38725;SDS011;24474;48.906;8.808;2023-04-03T16:33:06;3.08;;;1.88;;
38725;SDS011;24474;48.906;8.808;2023-04-03T16:35:35;4.50;;;1.98;;
38725;SDS011;24474;48.906;8.808;2023-04-03T16:38:01;3.88;;;2.00;;
38725;SDS011;24474;48.906;8.808;2023-04-03T16:40:28;4.13;;;2.20;;
38725;SDS011;24474;48.906;8.808;2023-04-03T16:42:56;2.97;;;1.60;;
38725;SDS011;24474;48.906;8.808;2023-04-03T16:45:23;4.50;;;2.38;;
38725;SDS011;24474;48.906;8.808;2023-04-03T16:47:49;3.20;;;1.98;;
38725;SDS011;24474;48.906;8.808;2023-04-03T16:50:17;4.15;;;1.80;;
38725;SDS011;24474;48.906;8.808;2023-04-03T16:52:47;3.95;;;1.77;;
38725;SDS011;24474;48.906;8.808;2023-04-03T16:55:14;4.22;;;2.15;;
38725;SDS011;24474;48.906;8.808;2023-04-03T16:57:41;4.93;;;2.80;;
38725;SDS011;24474;48.906;8.808;2023-04-03T17:00:07;4.72;;;2.30;;